createdAt,value
2023-04-29T00:01:14.942Z,100.00
2023-04-29T00:03:41.881Z,100.00
2023-04-29T00:06:08.946Z,100.00
2023-04-29T00:08:35.797Z,100.00
2023-04-29T00:11:02.487Z,100.00
2023-04-29T00:13:29.631Z,100.00
2023-04-29T00:15:56.319Z,100.00
2023-04-29T00:18:22.999Z,100.00
2023-04-29T00:20:49.695Z,100.00
2023-04-29T00:23:16.672Z,100.00
2023-04-29T00:25:43.389Z,100.00
2023-04-29T00:28:10.303Z,100.00
2023-04-29T00:30:37.451Z,100.00
2023-04-29T00:33:04.421Z,100.00
2023-04-29T00:35:31.470Z,100.00
2023-04-29T00:37:58.529Z,100.00
2023-04-29T00:40:25.309Z,100.00
2023-04-29T00:42:52.060Z,100.00
2023-04-29T00:45:18.918Z,100.00
2023-04-29T00:47:45.947Z,100.00
2023-04-29T00:50:12.894Z,100.00
2023-04-29T00:52:40.057Z,100.00
2023-04-29T00:55:09.495Z,100.00
2023-04-29T00:57:36.269Z,100.00
2023-04-29T01:00:04.293Z,100.00
2023-04-29T01:02:31.221Z,100.00
2023-04-29T01:04:58.134Z,100.00
2023-04-29T01:08:10.073Z,100.00
2023-04-29T01:11:01.915Z,100.00
2023-04-29T01:13:44.727Z,100.00
2023-04-29T01:16:22.750Z,100.00
2023-04-29T01:18:57.784Z,100.00
2023-04-29T01:21:25.545Z,100.00
2023-04-29T01:23:56.452Z,100.00
2023-04-29T01:26:24.145Z,100.00
2023-04-29T01:29:17.042Z,100.00
2023-04-29T01:31:54.079Z,100.00
2023-04-29T01:34:31.396Z,100.00
2023-04-29T01:37:35.085Z,100.00
2023-04-29T01:40:04.621Z,100.00
2023-04-29T01:42:39.367Z,100.00
2023-04-29T01:45:08.186Z,100.00
2023-04-29T01:47:36.390Z,100.00
2023-04-29T01:50:03.518Z,100.00
2023-04-29T01:52:30.278Z,100.00
2023-04-29T01:54:57.954Z,100.00
2023-04-29T01:57:24.822Z,100.00
2023-04-29T01:59:51.943Z,100.00
2023-04-29T02:02:21.906Z,100.00
2023-04-29T02:04:49.950Z,100.00
2023-04-29T02:07:17.436Z,100.00
2023-04-29T02:09:44.213Z,100.00
2023-04-29T02:12:10.994Z,100.00
2023-04-29T02:14:38.067Z,100.00
2023-04-29T02:17:04.927Z,100.00
2023-04-29T02:19:31.641Z,100.00
2023-04-29T02:21:58.416Z,100.00
2023-04-29T02:24:25.375Z,100.00
2023-04-29T02:26:52.278Z,100.00
2023-04-29T02:29:19.342Z,100.00
2023-04-29T02:31:46.051Z,100.00
2023-04-29T02:34:12.790Z,100.00
2023-04-29T02:36:39.757Z,100.00
2023-04-29T02:39:06.594Z,100.00
2023-04-29T02:41:33.624Z,100.00
2023-04-29T02:44:00.731Z,100.00
2023-04-29T02:46:27.526Z,100.00
2023-04-29T02:48:54.246Z,100.00
2023-04-29T02:51:20.945Z,100.00
2023-04-29T02:53:47.759Z,100.00
2023-04-29T02:56:14.421Z,100.00
2023-04-29T02:58:42.566Z,100.00
2023-04-29T03:01:09.304Z,100.00
2023-04-29T03:03:36.103Z,100.00
2023-04-29T03:06:03.646Z,100.00
2023-04-29T03:08:30.353Z,100.00
2023-04-29T03:10:57.280Z,100.00
2023-04-29T03:13:23.975Z,100.00
2023-04-29T03:15:50.880Z,100.00
2023-04-29T03:18:17.618Z,100.00
2023-04-29T03:20:44.323Z,100.00
2023-04-29T03:23:11.034Z,100.00
2023-04-29T03:25:37.765Z,100.00
2023-04-29T03:28:04.677Z,100.00
2023-04-29T03:30:31.486Z,100.00
2023-04-29T03:32:58.266Z,100.00
2023-04-29T03:35:24.979Z,100.00
2023-04-29T03:37:51.806Z,100.00
2023-04-29T03:40:18.480Z,100.00
2023-04-29T03:42:45.234Z,100.00
2023-04-29T03:45:14.595Z,100.00
2023-04-29T03:47:41.814Z,100.00
2023-04-29T03:50:09.359Z,100.00
2023-04-29T03:52:39.206Z,100.00
2023-04-29T03:55:06.318Z,100.00
2023-04-29T03:57:33.119Z,100.00
2023-04-29T04:00:00.243Z,100.00
2023-04-29T04:02:27.133Z,100.00
2023-04-29T04:04:55.747Z,100.00
2023-04-29T04:07:22.618Z,100.00
2023-04-29T04:09:49.573Z,100.00
2023-04-29T04:12:16.758Z,100.00
2023-04-29T04:14:43.522Z,100.00
2023-04-29T04:17:10.327Z,100.00
2023-04-29T04:19:37.204Z,100.00
2023-04-29T04:22:05.148Z,100.00
2023-04-29T04:24:32.086Z,100.00
2023-04-29T04:26:58.805Z,100.00
2023-04-29T04:29:25.782Z,100.00
2023-04-29T04:31:52.538Z,100.00
2023-04-29T04:34:19.291Z,100.00
2023-04-29T04:36:46.729Z,100.00
2023-04-29T04:39:13.570Z,100.00
2023-04-29T04:41:40.287Z,100.00
2023-04-29T04:44:07.382Z,100.00
2023-04-29T04:46:34.802Z,100.00
2023-04-29T04:49:01.582Z,100.00
2023-04-29T04:51:29.315Z,100.00
2023-04-29T04:53:56.118Z,100.00
2023-04-29T04:56:22.964Z,100.00
2023-04-29T04:58:49.788Z,100.00
2023-04-29T05:01:16.574Z,100.00
2023-04-29T05:03:43.598Z,100.00
2023-04-29T05:06:10.410Z,100.00
2023-04-29T05:08:37.403Z,100.00
2023-04-29T05:11:04.191Z,100.00
2023-04-29T05:13:30.955Z,100.00
2023-04-29T05:15:57.700Z,100.00
2023-04-29T05:18:24.462Z,100.00
2023-04-29T05:20:51.469Z,100.00
2023-04-29T05:23:18.328Z,100.00
2023-04-29T05:25:45.309Z,100.00
2023-04-29T05:28:12.075Z,100.00
2023-04-29T05:30:38.834Z,100.00
2023-04-29T05:33:05.672Z,100.00
2023-04-29T05:35:33.246Z,100.00
2023-04-29T05:37:59.969Z,100.00
2023-04-29T05:40:27.503Z,100.00
2023-04-29T05:42:54.418Z,100.00
2023-04-29T05:45:21.257Z,100.00
2023-04-29T05:47:48.297Z,100.00
2023-04-29T05:50:15.230Z,100.00
2023-04-29T05:52:42.089Z,100.00
2023-04-29T05:55:09.485Z,100.00
2023-04-29T05:57:36.357Z,100.00
2023-04-29T06:00:04.577Z,100.00
2023-04-29T06:02:31.459Z,100.00
2023-04-29T06:04:58.287Z,100.00
2023-04-29T06:07:25.186Z,100.00
2023-04-29T06:09:52.014Z,100.00
2023-04-29T06:12:18.916Z,100.00
2023-04-29T06:14:45.649Z,100.00
2023-04-29T06:17:13.179Z,100.00
2023-04-29T06:19:39.969Z,100.00
2023-04-29T06:22:06.673Z,100.00
2023-04-29T06:24:55.536Z,100.00
2023-04-29T06:30:31.965Z,100.00
2023-04-29T06:32:59.165Z,100.00
2023-04-29T06:35:26.020Z,100.00
2023-04-29T06:37:53.467Z,100.00
2023-04-29T06:40:23.796Z,100.00
2023-04-29T06:42:52.593Z,100.00
2023-04-29T06:45:19.489Z,100.00
2023-04-29T06:47:47.016Z,100.00
2023-04-29T06:50:13.986Z,100.00
2023-04-29T06:52:41.067Z,100.00
2023-04-29T06:55:25.126Z,100.00
2023-04-29T06:58:03.948Z,100.00
2023-04-29T07:00:34.008Z,100.00
2023-04-29T07:03:01.130Z,100.00
2023-04-29T07:05:28.063Z,100.00
2023-04-29T07:07:55.292Z,100.00
2023-04-29T07:10:22.116Z,100.00
2023-04-29T07:12:48.924Z,100.00
2023-04-29T07:15:15.973Z,100.00
2023-04-29T07:17:42.835Z,100.00
2023-04-29T07:20:10.376Z,100.00
2023-04-29T07:22:37.294Z,100.00
2023-04-29T07:25:05.034Z,100.00
2023-04-29T07:27:34.791Z,100.00
2023-04-29T07:30:01.843Z,100.00
2023-04-29T07:32:28.956Z,100.00
2023-04-29T07:34:56.105Z,100.00
2023-04-29T07:37:22.998Z,100.00
2023-04-29T07:39:49.865Z,100.00
2023-04-29T07:42:16.600Z,100.00
2023-04-29T07:44:43.578Z,100.00
2023-04-29T07:47:10.667Z,100.00
2023-04-29T07:49:37.733Z,100.00
2023-04-29T07:52:10.485Z,100.00
2023-04-29T07:54:37.411Z,100.00
2023-04-29T07:57:05.089Z,100.00
2023-04-29T07:59:32.671Z,100.00
2023-04-29T08:02:02.386Z,100.00
2023-04-29T08:04:29.677Z,100.00
2023-04-29T08:06:57.066Z,100.00
2023-04-29T08:09:24.042Z,100.00
2023-04-29T08:11:51.053Z,100.00
2023-04-29T08:14:17.814Z,100.00
2023-04-29T08:16:44.957Z,100.00
2023-04-29T08:19:11.753Z,100.00
2023-04-29T08:21:38.630Z,100.00
2023-04-29T08:24:06.367Z,100.00
2023-04-29T08:26:33.205Z,100.00
2023-04-29T08:29:00.665Z,100.00
2023-04-29T08:31:27.597Z,100.00
2023-04-29T08:33:54.924Z,100.00
2023-04-29T08:36:21.976Z,100.00
2023-04-29T08:38:49.447Z,100.00
2023-04-29T08:41:17.137Z,100.00
2023-04-29T08:43:44.059Z,100.00
2023-04-29T08:46:11.235Z,100.00
2023-04-29T08:48:42.566Z,100.00
2023-04-29T08:51:13.777Z,100.00
2023-04-29T08:53:40.621Z,100.00
2023-04-29T08:56:14.935Z,100.00
2023-04-29T08:58:42.593Z,100.00
2023-04-29T09:01:10.472Z,100.00
2023-04-29T09:03:48.548Z,100.00
2023-04-29T09:06:15.718Z,100.00
2023-04-29T09:08:42.675Z,100.00
2023-04-29T09:11:12.017Z,100.00
2023-04-29T09:13:38.957Z,100.00
2023-04-29T09:16:12.157Z,100.00
2023-04-29T09:18:52.095Z,100.00
2023-04-29T09:21:27.591Z,100.00
2023-04-29T09:24:01.967Z,100.00
2023-04-29T09:26:37.046Z,100.00
2023-04-29T09:29:14.701Z,100.00
2023-04-29T09:31:42.506Z,100.00
2023-04-29T09:34:09.664Z,100.00
2023-04-29T09:36:50.574Z,100.00
2023-04-29T09:39:20.033Z,99.52
2023-04-29T09:42:13.553Z,99.24
2023-04-29T09:44:42.854Z,99.69
2023-04-29T09:47:10.836Z,99.45
2023-04-29T09:49:41.132Z,98.56
2023-04-29T09:52:10.130Z,97.33
2023-04-29T09:54:39.442Z,95.69
2023-04-29T09:57:07.509Z,96.81
2023-04-29T09:59:37.071Z,95.88
2023-04-29T10:02:11.126Z,97.16
2023-04-29T10:04:41.158Z,99.62
2023-04-29T10:07:09.914Z,99.62
2023-04-29T10:09:38.444Z,98.88
2023-04-29T10:12:06.450Z,100.00
2023-04-29T10:14:38.332Z,100.00
2023-04-29T10:17:19.748Z,99.85
2023-04-29T10:19:54.106Z,100.00
2023-04-29T10:22:30.767Z,99.96
2023-04-29T10:24:57.811Z,99.86
2023-04-29T10:27:25.438Z,99.90
2023-04-29T10:29:53.768Z,99.94
2023-04-29T10:32:22.263Z,100.00
2023-04-29T10:34:49.992Z,100.00
2023-04-29T10:37:17.959Z,100.00
2023-04-29T10:40:04.573Z,100.00
2023-04-29T10:42:46.182Z,100.00
2023-04-29T10:45:35.257Z,100.00
2023-04-29T10:48:13.475Z,99.36
2023-04-29T10:51:01.673Z,100.00
2023-04-29T10:53:29.508Z,99.87
2023-04-29T10:56:09.644Z,99.63
2023-04-29T10:58:46.818Z,99.77
2023-04-29T11:01:15.845Z,99.09
2023-04-29T11:04:03.319Z,100.00
2023-04-29T11:06:41.879Z,99.94
2023-04-29T11:09:29.769Z,100.00
2023-04-29T11:12:04.250Z,100.00
2023-04-29T11:15:03.353Z,100.00
2023-04-29T11:17:36.726Z,100.00
2023-04-29T11:20:04.204Z,100.00
2023-04-29T11:22:32.459Z,100.00
2023-04-29T11:25:10.303Z,99.61
2023-04-29T11:27:39.070Z,100.00
2023-04-29T11:30:07.121Z,100.00
2023-04-29T11:32:40.674Z,100.00
2023-04-29T11:35:12.387Z,100.00
2023-04-29T11:37:39.757Z,100.00
2023-04-29T11:40:07.574Z,100.00
2023-04-29T11:42:43.137Z,99.99
2023-04-29T11:45:10.481Z,97.66
2023-04-29T11:47:37.593Z,97.86
2023-04-29T11:50:10.050Z,98.22
2023-04-29T11:52:38.749Z,97.97
2023-04-29T11:55:06.262Z,97.82
2023-04-29T11:57:33.133Z,98.34
2023-04-29T11:59:59.932Z,97.74
2023-04-29T12:02:33.636Z,96.11
2023-04-29T12:05:02.062Z,95.99
2023-04-29T12:07:29.826Z,97.12
2023-04-29T12:10:00.422Z,97.30
2023-04-29T12:12:28.075Z,98.74
2023-04-29T12:14:55.397Z,97.44
2023-04-29T12:17:22.414Z,98.22
2023-04-29T12:19:49.894Z,97.47
2023-04-29T12:22:16.789Z,96.97
2023-04-29T12:24:43.571Z,97.91
2023-04-29T12:27:11.160Z,98.41
2023-04-29T12:29:38.602Z,99.40
2023-04-29T12:32:05.717Z,98.52
2023-04-29T12:34:33.266Z,99.17
2023-04-29T12:37:01.139Z,98.09
2023-04-29T12:39:28.627Z,97.85
2023-04-29T12:41:58.101Z,97.42
2023-04-29T12:44:25.693Z,96.21
2023-04-29T12:46:58.402Z,95.39
2023-04-29T12:49:25.412Z,95.87
2023-04-29T12:51:52.181Z,93.84
2023-04-29T12:54:18.989Z,94.47
2023-04-29T12:56:49.188Z,92.03
2023-04-29T12:59:16.874Z,93.37
2023-04-29T13:01:43.721Z,91.25
2023-04-29T13:04:12.345Z,87.62
2023-04-29T13:06:42.999Z,87.10
2023-04-29T13:09:18.336Z,89.35
2023-04-29T13:11:45.689Z,86.75
2023-04-29T13:14:13.023Z,86.44
2023-04-29T13:16:40.881Z,87.49
2023-04-29T13:19:24.610Z,86.61
2023-04-29T13:21:54.578Z,87.20
2023-04-29T13:24:21.453Z,89.38
2023-04-29T13:26:52.422Z,86.31
2023-04-29T13:29:19.548Z,87.70
2023-04-29T13:31:46.423Z,87.77
2023-04-29T13:34:13.390Z,88.10
2023-04-29T13:36:40.250Z,88.33
2023-04-29T13:39:07.382Z,87.97
2023-04-29T13:41:35.631Z,87.52
2023-04-29T13:44:03.383Z,87.54
2023-04-29T13:46:33.101Z,89.23
2023-04-29T13:51:53.208Z,87.46
2023-04-29T14:04:17.522Z,87.90
2023-04-29T14:06:44.572Z,88.77
2023-04-29T14:09:11.301Z,87.54
2023-04-29T14:11:38.412Z,88.25
2023-04-29T14:14:05.480Z,87.78
2023-04-29T14:16:32.753Z,88.21
2023-04-29T14:19:01.375Z,87.87
2023-04-29T14:21:32.175Z,88.94
2023-04-29T14:23:59.888Z,89.32
2023-04-29T14:26:28.826Z,87.75
2023-04-29T14:28:59.992Z,89.50
2023-04-29T14:31:29.202Z,88.86
2023-04-29T14:33:56.907Z,89.35
2023-04-29T14:36:24.097Z,90.33
2023-04-29T14:38:51.494Z,88.74
2023-04-29T14:41:18.635Z,87.39
2023-04-29T14:43:46.151Z,86.44
2023-04-29T14:46:13.246Z,87.78
2023-04-29T14:48:40.119Z,87.10
2023-04-29T14:51:07.593Z,87.43
2023-04-29T14:53:34.637Z,87.76
2023-04-29T14:56:01.503Z,87.83
2023-04-29T14:58:28.356Z,87.56
2023-04-29T15:00:55.215Z,87.53
2023-04-29T15:03:23.169Z,87.10
2023-04-29T15:05:51.612Z,87.13
2023-04-29T15:08:19.738Z,87.13
2023-04-29T15:10:50.253Z,85.83
2023-04-29T15:13:17.158Z,87.18
2023-04-29T15:15:43.948Z,87.21
2023-04-29T15:18:10.894Z,86.94
2023-04-29T15:20:38.271Z,87.02
2023-04-29T15:23:06.135Z,87.40
2023-04-29T15:25:36.354Z,87.51
2023-04-29T15:28:05.033Z,88.26
2023-04-29T15:30:32.204Z,87.31
2023-04-29T15:32:59.342Z,86.74
2023-04-29T15:35:27.943Z,85.38
2023-04-29T15:37:54.801Z,85.45
2023-04-29T15:40:22.089Z,85.12
2023-04-29T15:42:49.082Z,85.62
2023-04-29T15:45:17.288Z,84.98
2023-04-29T15:47:44.233Z,85.08
2023-04-29T15:50:11.625Z,85.14
2023-04-29T15:52:38.426Z,85.07
2023-04-29T15:55:08.978Z,85.92
2023-04-29T15:57:41.557Z,85.48
2023-04-29T16:00:09.339Z,86.03
2023-04-29T16:02:36.169Z,84.99
2023-04-29T16:05:03.378Z,85.98
2023-04-29T16:07:30.806Z,86.64
2023-04-29T16:09:57.493Z,86.84
2023-04-29T16:12:24.225Z,86.22
2023-04-29T16:14:51.460Z,86.65
2023-04-29T16:17:18.805Z,86.21
2023-04-29T16:19:45.481Z,86.82
2023-04-29T16:22:12.286Z,86.03
2023-04-29T16:24:38.994Z,86.33
2023-04-29T16:27:05.710Z,86.63
2023-04-29T16:29:32.626Z,86.99
2023-04-29T16:31:59.400Z,86.12
2023-04-29T16:34:26.216Z,86.79
2023-04-29T16:36:52.986Z,85.93
2023-04-29T16:39:19.684Z,84.07
2023-04-29T16:41:46.693Z,83.32
2023-04-29T16:44:13.632Z,84.48
2023-04-29T16:46:40.615Z,84.70
2023-04-29T16:49:07.721Z,84.51
2023-04-29T16:51:34.474Z,84.90
2023-04-29T16:54:01.210Z,85.72
2023-04-29T16:56:28.030Z,84.40
2023-04-29T16:58:54.856Z,84.76
2023-04-29T17:01:21.642Z,85.35
2023-04-29T17:03:48.542Z,85.38
2023-04-29T17:06:18.357Z,85.10
2023-04-29T17:08:45.882Z,85.25
2023-04-29T17:11:12.848Z,85.77
2023-04-29T17:13:39.725Z,85.68
2023-04-29T17:16:07.654Z,86.01
2023-04-29T17:18:34.605Z,86.41
2023-04-29T17:21:01.350Z,85.20
2023-04-29T17:23:28.397Z,84.85
2023-04-29T17:25:55.781Z,85.00
2023-04-29T17:28:23.799Z,85.05
2023-04-29T17:30:50.592Z,85.76
2023-04-29T17:33:17.878Z,85.05
2023-04-29T17:35:45.594Z,85.58
2023-04-29T17:38:12.467Z,85.85
2023-04-29T17:40:39.666Z,86.06
2023-04-29T17:43:06.529Z,86.59
2023-04-29T17:45:33.714Z,87.20
2023-04-29T17:48:00.847Z,87.17
2023-04-29T17:50:28.076Z,87.23
2023-04-29T17:52:54.832Z,87.55
2023-04-29T17:55:21.637Z,87.09
2023-04-29T17:57:48.537Z,87.38
2023-04-29T18:00:15.345Z,87.39
2023-04-29T18:02:42.560Z,87.27
2023-04-29T18:05:09.438Z,87.01
2023-04-29T18:07:36.349Z,86.96
2023-04-29T18:10:03.204Z,89.03
2023-04-29T18:12:30.005Z,89.39
2023-04-29T18:14:56.912Z,89.87
2023-04-29T18:17:23.723Z,92.33
2023-04-29T18:19:50.571Z,90.71
2023-04-29T18:22:17.410Z,92.25
2023-04-29T18:24:44.599Z,92.94
2023-04-29T18:27:11.366Z,91.98
2023-04-29T18:29:38.105Z,92.44
2023-04-29T18:32:08.114Z,92.57
2023-04-29T18:34:35.178Z,92.81
2023-04-29T18:37:01.932Z,92.85
2023-04-29T18:39:29.064Z,93.50
2023-04-29T18:41:56.475Z,92.70
2023-04-29T18:44:23.225Z,92.36
2023-04-29T18:46:49.995Z,92.86
2023-04-29T18:49:18.210Z,93.28
2023-04-29T18:51:48.412Z,93.97
2023-04-29T18:54:17.567Z,95.14
2023-04-29T18:56:48.668Z,93.30
2023-04-29T18:59:21.359Z,93.96
2023-04-29T19:01:48.963Z,95.02
2023-04-29T19:04:16.594Z,94.69
2023-04-29T19:06:43.495Z,94.08
2023-04-29T19:09:11.726Z,95.21
2023-04-29T19:11:38.480Z,95.76
2023-04-29T19:14:06.306Z,96.48
2023-04-29T19:16:35.513Z,96.53
2023-04-29T19:19:04.505Z,97.47
2023-04-29T19:21:33.424Z,98.28
2023-04-29T19:24:00.227Z,98.34
2023-04-29T19:26:26.968Z,98.07
2023-04-29T19:28:53.686Z,98.60
2023-04-29T19:31:20.510Z,98.90
2023-04-29T19:33:48.642Z,98.99
2023-04-29T19:36:15.383Z,99.05
2023-04-29T19:38:42.115Z,99.12
2023-04-29T19:41:08.973Z,99.15
2023-04-29T19:43:35.915Z,99.06
2023-04-29T19:46:02.779Z,99.65
2023-04-29T19:48:29.595Z,100.00
2023-04-29T19:50:59.734Z,100.00
2023-04-29T19:53:27.155Z,100.00
2023-04-29T19:55:54.292Z,100.00
2023-04-29T19:58:21.036Z,100.00
2023-04-29T20:00:47.776Z,100.00
2023-04-29T20:03:14.766Z,100.00
2023-04-29T20:05:41.680Z,100.00
2023-04-29T20:08:08.442Z,100.00
2023-04-29T20:10:35.149Z,100.00
2023-04-29T20:13:02.016Z,100.00
2023-04-29T20:15:28.974Z,100.00
2023-04-29T20:17:56.274Z,100.00
2023-04-29T20:20:24.583Z,100.00
2023-04-29T20:22:51.297Z,100.00
2023-04-29T20:25:18.212Z,100.00
2023-04-29T20:27:44.897Z,100.00
2023-04-29T20:30:11.946Z,100.00
2023-04-29T20:32:38.867Z,100.00
2023-04-29T20:35:06.223Z,100.00
2023-04-29T20:37:33.000Z,100.00
2023-04-29T20:39:59.989Z,100.00
2023-04-29T20:42:28.767Z,100.00
2023-04-29T20:44:56.777Z,100.00
2023-04-29T20:47:23.535Z,100.00
2023-04-29T20:49:50.510Z,100.00
2023-04-29T20:52:17.544Z,100.00
2023-04-29T20:54:44.288Z,100.00
2023-04-29T20:57:11.016Z,100.00
2023-04-29T20:59:37.803Z,100.00
2023-04-29T21:02:05.106Z,100.00
2023-04-29T21:04:31.814Z,100.00
2023-04-29T21:06:58.503Z,100.00
2023-04-29T21:09:25.418Z,100.00
2023-04-29T21:11:52.207Z,100.00
2023-04-29T21:14:19.189Z,100.00
2023-04-29T21:16:45.933Z,100.00
2023-04-29T21:19:12.642Z,100.00
2023-04-29T21:21:39.397Z,100.00
2023-04-29T21:24:06.327Z,100.00
2023-04-29T21:26:33.117Z,100.00
2023-04-29T21:28:59.949Z,100.00
2023-04-29T21:31:26.794Z,100.00
2023-04-29T21:33:53.546Z,100.00
2023-04-29T21:36:20.371Z,100.00
2023-04-29T21:38:47.422Z,100.00
2023-04-29T21:41:26.789Z,100.00
2023-04-29T21:43:55.235Z,100.00
2023-04-29T21:46:22.113Z,100.00
2023-04-29T21:48:49.257Z,100.00
2023-04-29T21:51:16.062Z,100.00
2023-04-29T21:53:43.037Z,100.00
2023-04-29T21:56:09.772Z,100.00
2023-04-29T21:58:36.590Z,100.00
2023-04-29T22:01:05.679Z,100.00
2023-04-29T22:03:32.602Z,100.00
2023-04-29T22:05:59.526Z,100.00
2023-04-29T22:08:26.341Z,100.00
2023-04-29T22:10:53.048Z,100.00
2023-04-29T22:13:19.781Z,100.00
2023-04-29T22:15:46.467Z,100.00
2023-04-29T22:18:13.173Z,100.00
2023-04-29T22:20:39.941Z,100.00
2023-04-29T22:23:06.659Z,100.00
2023-04-29T22:25:33.421Z,100.00
2023-04-29T22:28:00.358Z,100.00
2023-04-29T22:30:27.074Z,100.00
2023-04-29T22:32:54.059Z,100.00
2023-04-29T22:35:21.092Z,100.00
2023-04-29T22:37:47.928Z,100.00
2023-04-29T22:40:14.847Z,100.00
2023-04-29T22:42:43.165Z,100.00
2023-04-29T22:45:11.632Z,100.00
2023-04-29T22:47:38.522Z,100.00
2023-04-29T22:50:06.397Z,100.00
2023-04-29T22:52:33.169Z,100.00
2023-04-29T22:55:00.266Z,100.00
2023-04-29T22:57:27.114Z,100.00
2023-04-29T22:59:57.860Z,100.00
2023-04-29T23:02:29.618Z,100.00
2023-04-29T23:04:57.191Z,100.00
2023-04-29T23:07:27.150Z,100.00
2023-04-29T23:09:54.522Z,100.00
2023-04-29T23:12:21.489Z,100.00
2023-04-29T23:14:48.254Z,100.00
2023-04-29T23:17:15.053Z,100.00
2023-04-29T23:19:42.690Z,100.00
2023-04-29T23:22:09.635Z,100.00
2023-04-29T23:24:36.680Z,100.00
2023-04-29T23:27:03.745Z,100.00
2023-04-29T23:29:36.909Z,100.00
2023-04-29T23:32:03.807Z,100.00
2023-04-29T23:34:30.526Z,100.00
2023-04-29T23:36:57.948Z,100.00
2023-04-29T23:39:24.663Z,100.00
2023-04-29T23:41:52.097Z,100.00
2023-04-29T23:44:18.820Z,100.00
2023-04-29T23:46:45.681Z,100.00
2023-04-29T23:49:12.624Z,100.00
2023-04-29T23:51:39.432Z,100.00
2023-04-29T23:54:06.214Z,100.00
2023-04-29T23:56:33.971Z,100.00
2023-04-29T23:59:00.999Z,100.00
